• Join FlightAware (Why Join?)
  • Login
  • US Flag 
02:34AM EDT


 

Airport Tracker/Info


-or-


 

Live Flight TrackerFlight Track Log ✈ LJY630 ✈ 26-Dec-2013 ✈ KMGW - KLBE

Flight Track Log - Related Links

Times and Time Zones

All times are in EST time to prevent confusion due to time zone crossing. See the LJY630 flight status page for this flight to view local times or setup timezone preferences in your user account.

Time Position Orientation Groundspeed Altitude Reporting Facility
EST Latitude Longitude Course Direction KTS MPH feet Rate Location/Type
10:11AM 39.7911 -79.8247 35° Northeast 272 313 5,000  Level Cleveland Center
10:11AM 39.8072 -79.8117 32° Northeast 288 331 4,900 60 Descending Cleveland Center
10:12AM 39.8569 -79.7675 34° Northeast 281 323 5,100 60 Climbing Cleveland Center
10:12AM 39.8708 -79.7558 33° Northeast 276 318 5,000  Descending Cleveland Center
10:13AM 39.9194 -79.7139 33° Northeast 275 316 5,100 -120 Climbing Cleveland Center
10:13AM 39.9322 -79.7025 34° Northeast 270 311 4,900  Descending Cleveland Center
10:14AM 39.9831 -79.6589 33° Northeast 276 318 5,100 60 Climbing Cleveland Center
10:14AM 39.9914 -79.6511 36° Northeast 278 320 5,000  Descending Cleveland Center
10:15AM 40.0272 -79.6084 21° North  Level Estimated
10:15AM 40.0469 -79.6019 34° Northeast 279 321 5,100  Level Cleveland Center
10:15AM 40.0547 -79.5978 22° Northeast 280 322 5,000 -120 Descending Cleveland Center
10:16AM 40.0910 -79.5565 21° North  Level Estimated
10:16AM 40.1128 -79.5353 39° Northeast 278 320 5,000  Level Cleveland Center
10:16AM 40.1094 -79.5458 248° West 277 319 4,900  Descending Cleveland Center
10:17AM 40.1622 -79.4469 55° Northeast 282 325 5,000  Climbing Cleveland Center
10:17AM 40.1622 -79.4453 90° East 281 323 4,900  Descending Cleveland Center
10:18AM 40.2147 -79.3753 46° Northeast 278 320 5,000 60 Climbing Cleveland Center
10:18AM 40.2161 -79.3725 57° Northeast 280 322 5,000 -60 Level Cleveland Center
10:20AM 40.3250 -79.2350 44° Northeast 274 315 4,900 -60 Descending Cleveland Center
10:20AM 40.3283 -79.2294 52° Northeast 274 315 4,900 -720 Level Cleveland Center
10:21AM 40.3842 -79.1728 38° Northeast 268 308 4,100 -420 Descending Cleveland Center
10:22AM 40.3978 -79.2181 292° West 153 176 4,200 60 Climbing Cleveland Center
10:22AM 40.3986 -79.2197 303° West 188 216 4,200 -120 Level Cleveland Center
10:23AM 40.3772 -79.2722 242° Southwest 167 192 4,100 -600 Descending Cleveland Center
10:24AM 40.3447 -79.3136 224° Southwest 148 170 3,000 -780 Descending Cleveland Center
10:25AM 40.3256 -79.3400 226° Southwest 113 130 2,500 -600 Descending Cleveland Center
10:26AM 40.3078 -79.3642 226° Southwest 92 106 2,000 -600 Descending Cleveland Center
10:26AM 40.3067 -79.3672 245° Southwest 102 117 1,900 -360 Descending Cleveland Center
10:27AM 40.2869 -79.3931 225° Southwest 103 119 1,600 -300 Descending Cleveland Center
10:29AM 40.2667 -79.4000 249° West  Level FlightAware Approximate
10:36AM 40.2746 -79.4068 249° West  Level Estimated
10:37AM 40.2746 -79.4068 249° West  Level Estimated